<?xml version='1.0' encoding='UTF-8'?><gpx version="1.1" creator="JPX - https://github.com/jenetics/jpx" xmlns="http://www.topografix.com/GPX/1/1"><trk><trkseg><trkpt lat="46.124371890024314" lon="13.60387515734991"><ele>610.0</ele><time>2026-05-03T16:44:12.999Z</time></trkpt><trkpt lat="46.12438455590528" lon="13.603975157573897"><ele>610.0</ele><time>2026-05-03T16:44:21.999Z</time></trkpt><trkpt lat="46.12440831260559" lon="13.604067341551739"><ele>610.0</ele><time>2026-05-03T16:44:28.999Z</time></trkpt><trkpt lat="46.12443746568279" lon="13.604151606968633"><ele>610.0</ele><time>2026-05-03T16:44:33.999Z</time></trkpt><trkpt lat="46.12446680457038" lon="13.604234880913387"><ele>610.0</ele><time>2026-05-03T16:44:40.999Z</time></trkpt><trkpt lat="46.124446377956154" lon="13.604343203440795"><ele>610.0</ele><time>2026-05-03T16:44:47.001Z</time></trkpt><trkpt lat="46.1244044694376" lon="13.604425488161148"><ele>610.0</ele><time>2026-05-03T16:44:52.001Z</time></trkpt><trkpt lat="46.12437542082119" lon="13.604527308591118"><ele>609.7142857142858</ele><time>2026-05-03T16:44:57.001Z</time></trkpt><trkpt lat="46.124342367246356" lon="13.604616083969134"><ele>609.4285714285713</ele><time>2026-05-03T16:45:02.001Z</time></trkpt><trkpt lat="46.12431877163071" lon="13.604705290300721"><ele>609.1428571428571</ele><time>2026-05-03T16:45:07.001Z</time></trkpt><trkpt lat="46.12429926672836" lon="13.604805710628158"><ele>608.8571428571429</ele><time>2026-05-03T16:45:13Z</time></trkpt><trkpt lat="46.12430592327891" lon="13.6048992130259"><ele>608.5714285714287</ele><time>2026-05-03T16:45:19Z</time></trkpt><trkpt lat="46.124348830632144" lon="13.604990324085145"><ele>608.2857142857142</ele><time>2026-05-03T16:45:27Z</time></trkpt><trkpt lat="46.1243950661815" lon="13.60506001151711"><ele>608.0</ele><time>2026-05-03T16:45:33Z</time></trkpt><trkpt lat="46.12440306987082" lon="13.6051666981851"><ele>608.0</ele><time>2026-05-03T16:45:40Z</time></trkpt><trkpt lat="46.12438083461202" lon="13.60525643733683"><ele>608.0</ele><time>2026-05-03T16:45:44Z</time></trkpt><trkpt lat="46.12436962689227" lon="13.605351820374002"><ele>608.0</ele><time>2026-05-03T16:45:49Z</time></trkpt><trkpt lat="46.124384843143886" lon="13.605451305984028"><ele>608.0</ele><time>2026-05-03T16:45:55Z</time></trkpt><trkpt lat="46.12441609794919" lon="13.605543662275023"><ele>608.0</ele><time>2026-05-03T16:46:01Z</time></trkpt><trkpt lat="46.124457592758176" lon="13.605620506490666"><ele>608.0</ele><time>2026-05-03T16:46:06.999Z</time></trkpt><trkpt lat="46.12450110642821" lon="13.60569139709851"><ele>608.0</ele><time>2026-05-03T16:46:11.999Z</time></trkpt><trkpt lat="46.12455044302975" lon="13.605756782906058"><ele>608.4285714285714</ele><time>2026-05-03T16:46:16.999Z</time></trkpt><trkpt lat="46.124594372631506" lon="13.605826870734512"><ele>608.8571428571429</ele><time>2026-05-03T16:46:21.999Z</time></trkpt><trkpt lat="46.124645180871546" lon="13.60589736369654"><ele>609.2857142857143</ele><time>2026-05-03T16:46:27.999Z</time></trkpt><trkpt lat="46.12469230118233" lon="13.60596540212011"><ele>609.7142857142858</ele><time>2026-05-03T16:46:33.999Z</time></trkpt><trkpt lat="46.12474410974157" lon="13.606031828150138"><ele>610.1428571428571</ele><time>2026-05-03T16:46:39.999Z</time></trkpt><trkpt lat="46.12480071827593" lon="13.606080217531826"><ele>610.5714285714287</ele><time>2026-05-03T16:46:44.999Z</time></trkpt><trkpt lat="46.124872141710966" lon="13.606100194409368"><ele>611.0</ele><time>2026-05-03T16:46:50.999Z</time></trkpt><trkpt lat="46.124941138438345" lon="13.60611562932137"><ele>611.0000000000001</ele><time>2026-05-03T16:46:56.001Z</time></trkpt><trkpt lat="46.125006636658775" lon="13.60613804072762"><ele>611.0</ele><time>2026-05-03T16:47:01.001Z</time></trkpt><trkpt lat="46.125080183173985" lon="13.60615153993401"><ele>611.0</ele><time>2026-05-03T16:47:07.001Z</time></trkpt><trkpt lat="46.12515094610085" lon="13.606161638181339"><ele>611.0</ele><time>2026-05-03T16:47:13.001Z</time></trkpt><trkpt lat="46.125215861383275" lon="13.606159081331093"><ele>611.0</ele><time>2026-05-03T16:47:18Z</time></trkpt><trkpt lat="46.12529401582359" lon="13.606155314567125"><ele>611.0000000000001</ele><time>2026-05-03T16:47:24Z</time></trkpt><trkpt lat="46.1253689506767" lon="13.606134172088876"><ele>611.0</ele><time>2026-05-03T16:47:30Z</time></trkpt><trkpt lat="46.125446117149345" lon="13.606126946338836"><ele>611.0000000000001</ele><time>2026-05-03T16:47:36Z</time></trkpt><trkpt lat="46.125522259824976" lon="13.606139948056665"><ele>611.0</ele><time>2026-05-03T16:47:41Z</time></trkpt><trkpt lat="46.125594862626706" lon="13.606173025477284"><ele>611.0</ele><time>2026-05-03T16:47:46Z</time></trkpt><trkpt lat="46.12565615159809" lon="13.606225901781315"><ele>611.0</ele><time>2026-05-03T16:47:51Z</time></trkpt><trkpt lat="46.1257107294676" lon="13.606296608001946"><ele>611.0</ele><time>2026-05-03T16:47:56Z</time></trkpt><trkpt lat="46.125769841076206" lon="13.606329126701544"><ele>611.0000000000001</ele><time>2026-05-03T16:48:00.999Z</time></trkpt><trkpt lat="46.12583937798927" lon="13.60636148618952"><ele>611.0</ele><time>2026-05-03T16:48:05.999Z</time></trkpt><trkpt lat="46.125906822995084" lon="13.60637107791519"><ele>609.1428571428572</ele><time>2026-05-03T16:48:10.999Z</time></trkpt><trkpt lat="46.125977115393596" lon="13.606358017442181"><ele>607.2857142857143</ele><time>2026-05-03T16:48:16.999Z</time></trkpt><trkpt lat="46.126046255126916" lon="13.606377720566362"><ele>605.4285714285714</ele><time>2026-05-03T16:48:23.999Z</time></trkpt><trkpt lat="46.12611164674066" lon="13.606409969070599"><ele>603.5714285714287</ele><time>2026-05-03T16:48:29.999Z</time></trkpt><trkpt lat="46.126159485643335" lon="13.606472457417961"><ele>601.7142857142858</ele><time>2026-05-03T16:48:34.999Z</time></trkpt><trkpt lat="46.126201341207654" lon="13.60654488417597"><ele>599.8571428571429</ele><time>2026-05-03T16:48:38.999Z</time></trkpt><trkpt lat="46.12622867406004" lon="13.606633559634647"><ele>598.0</ele><time>2026-05-03T16:48:43.999Z</time></trkpt><trkpt lat="46.126263624010335" lon="13.606710532015663"><ele>598.0</ele><time>2026-05-03T16:48:47.999Z</time></trkpt><trkpt lat="46.126302479331" lon="13.60680508685714"><ele>598.0</ele><time>2026-05-03T16:48:53.999Z</time></trkpt><trkpt lat="46.126347549258135" lon="13.606877696426052"><ele>598.0</ele><time>2026-05-03T16:48:59.001Z</time></trkpt><trkpt lat="46.126394424453096" lon="13.606957798679176"><ele>598.0</ele><time>2026-05-03T16:49:05.001Z</time></trkpt><trkpt lat="46.12643023797393" lon="13.607042779804113"><ele>598.0</ele><time>2026-05-03T16:49:10.001Z</time></trkpt><trkpt lat="46.12645368187751" lon="13.607139104188827"><ele>598.0</ele><time>2026-05-03T16:49:16.001Z</time></trkpt><trkpt lat="46.12650277105442" lon="13.607202576467806"><ele>598.0</ele><time>2026-05-03T16:49:21Z</time></trkpt><trkpt lat="46.126546670198756" lon="13.607287362885602"><ele>596.4285714285714</ele><time>2026-05-03T16:49:27Z</time></trkpt><trkpt lat="46.12660396114483" lon="13.607361972608498"><ele>594.8571428571429</ele><time>2026-05-03T16:49:32Z</time></trkpt><trkpt lat="46.12664829017523" lon="13.60743360778637"><ele>593.2857142857143</ele><time>2026-05-03T16:49:37Z</time></trkpt><trkpt lat="46.12670999443881" lon="13.607496645958774"><ele>591.7142857142858</ele><time>2026-05-03T16:49:42Z</time></trkpt><trkpt lat="46.126753289100996" lon="13.607569524350106"><ele>590.1428571428572</ele><time>2026-05-03T16:49:47Z</time></trkpt><trkpt lat="46.12681208735776" lon="13.607610979428"><ele>588.5714285714286</ele><time>2026-05-03T16:49:55Z</time></trkpt><trkpt lat="46.12686950130143" lon="13.607673540256272"><ele>587.0</ele><time>2026-05-03T16:50:00.999Z</time></trkpt><trkpt lat="46.126925273317525" lon="13.607739997636875"><ele>587.0</ele><time>2026-05-03T16:50:06.999Z</time></trkpt><trkpt lat="46.126978334752444" lon="13.607791479650349"><ele>587.0</ele><time>2026-05-03T16:50:11.999Z</time></trkpt><trkpt lat="46.12702851149956" lon="13.607867099560165"><ele>587.0</ele><time>2026-05-03T16:50:17.999Z</time></trkpt><trkpt lat="46.12706482276602" lon="13.607948754845431"><ele>587.0</ele><time>2026-05-03T16:50:22.999Z</time></trkpt><trkpt lat="46.12709058577336" lon="13.608032850657754"><ele>587.0</ele><time>2026-05-03T16:50:27.999Z</time></trkpt><trkpt lat="46.12711985252259" lon="13.608116685447325"><ele>587.0</ele><time>2026-05-03T16:50:32.999Z</time></trkpt><trkpt lat="46.127140984252655" lon="13.608211043114222"><ele>587.0</ele><time>2026-05-03T16:50:38.999Z</time></trkpt><trkpt lat="46.12716562725208" lon="13.60831119911566"><ele>584.5714285714286</ele><time>2026-05-03T16:50:44.999Z</time></trkpt><trkpt lat="46.127192390227606" lon="13.608401371209007"><ele>582.1428571428572</ele><time>2026-05-03T16:50:49.998Z</time></trkpt><trkpt lat="46.12721184535206" lon="13.608497144056065"><ele>579.7142857142858</ele><time>2026-05-03T16:50:55.998Z</time></trkpt><trkpt lat="46.127249206667734" lon="13.608574737881062"><ele>577.2857142857143</ele><time>2026-05-03T16:51:00.998Z</time></trkpt><trkpt lat="46.127278635410626" lon="13.608659319201745"><ele>574.8571428571429</ele><time>2026-05-03T16:51:07.001Z</time></trkpt><trkpt lat="46.127316494506495" lon="13.608754287430102"><ele>572.4285714285714</ele><time>2026-05-03T16:51:12.001Z</time></trkpt><trkpt lat="46.12734002339742" lon="13.60884870219707"><ele>570.0</ele><time>2026-05-03T16:51:17Z</time></trkpt><trkpt lat="46.12738355340077" lon="13.60891984068245"><ele>570.0</ele><time>2026-05-03T16:51:22Z</time></trkpt><trkpt lat="46.12743631924324" lon="13.608996584610267"><ele>570.0</ele><time>2026-05-03T16:51:28Z</time></trkpt><trkpt lat="46.12747367606302" lon="13.609077020681703"><ele>570.0</ele><time>2026-05-03T16:51:33Z</time></trkpt><trkpt lat="46.127498287993554" lon="13.609162277824218"><ele>570.0</ele><time>2026-05-03T16:51:39Z</time></trkpt><trkpt lat="46.127503131221985" lon="13.609252863745722"><ele>570.0</ele><time>2026-05-03T16:51:45Z</time></trkpt><trkpt lat="46.12746915911225" lon="13.609343206129191"><ele>570.0</ele><time>2026-05-03T16:52:06.999Z</time></trkpt><trkpt lat="46.1274391298779" lon="13.60942562837641"><ele>570.0</ele><time>2026-05-03T16:52:11.999Z</time></trkpt><trkpt lat="46.12739409089136" lon="13.609493148158395"><ele>570.0</ele><time>2026-05-03T16:54:49.998Z</time></trkpt><trkpt lat="46.12736980257049" lon="13.609577500683647"><ele>570.0</ele><time>2026-05-03T16:54:54.998Z</time></trkpt><trkpt lat="46.12735049110487" lon="13.609668273094144"><ele>570.0</ele><time>2026-05-03T16:54:59.998Z</time></trkpt><trkpt lat="46.12732320749792" lon="13.6097680811948"><ele>570.0</ele><time>2026-05-03T16:55:05.998Z</time></trkpt><trkpt lat="46.127318997404345" lon="13.609866885287731"><ele>570.0</ele><time>2026-05-03T16:55:28Z</time></trkpt><trkpt lat="46.12733809708196" lon="13.609958062745488"><ele>570.0</ele><time>2026-05-03T16:55:35Z</time></trkpt><trkpt lat="46.12736459947433" lon="13.610048846479543"><ele>570.0</ele><time>2026-05-03T16:55:41Z</time></trkpt><trkpt lat="46.12740465090782" lon="13.610125127849638"><ele>570.0</ele><time>2026-05-03T16:55:47Z</time></trkpt><trkpt lat="46.12743576700576" lon="13.610205752295382"><ele>570.0</ele><time>2026-05-03T16:55:52Z</time></trkpt><trkpt lat="46.12745542914482" lon="13.610313791755228"><ele>570.0</ele><time>2026-05-03T16:55:57.999Z</time></trkpt><trkpt lat="46.127457733252214" lon="13.61041937178756"><ele>570.0</ele><time>2026-05-03T16:56:03.999Z</time></trkpt><trkpt lat="46.127441421734005" lon="13.610510936978535"><ele>570.0</ele><time>2026-05-03T16:56:09.999Z</time></trkpt><trkpt lat="46.12741742339709" lon="13.61060066197313"><ele>570.0</ele><time>2026-05-03T16:56:14.999Z</time></trkpt><trkpt lat="46.127384780614" lon="13.61068366491165"><ele>570.0</ele><time>2026-05-03T16:56:19.999Z</time></trkpt><trkpt lat="46.1273476672216" lon="13.610758250489361"><ele>568.0</ele><time>2026-05-03T16:56:23.999Z</time></trkpt><trkpt lat="46.12730942704194" lon="13.610833299501644"><ele>566.0</ele><time>2026-05-03T16:56:28.999Z</time></trkpt><trkpt lat="46.12725239087135" lon="13.610900121662718"><ele>564.0</ele><time>2026-05-03T16:56:35.999Z</time></trkpt><trkpt lat="46.12719811235212" lon="13.61097532218132"><ele>562.0</ele><time>2026-05-03T16:56:42.998Z</time></trkpt><trkpt lat="46.12713915456864" lon="13.611034035049883"><ele>560.0</ele><time>2026-05-03T16:58:33.999Z</time></trkpt><trkpt lat="46.12709725080983" lon="13.611113149389679"><ele>558.0</ele><time>2026-05-03T16:58:43.998Z</time></trkpt><trkpt lat="46.12706961445701" lon="13.611207582481919"><ele>556.0</ele><time>2026-05-03T16:58:49.998Z</time></trkpt><trkpt lat="46.12707822473922" lon="13.61130586833093"><ele>554.7142857142857</ele><time>2026-05-03T16:58:56.998Z</time></trkpt><trkpt lat="46.127072691080095" lon="13.611398706736033"><ele>553.4285714285714</ele><time>2026-05-03T16:59:11.998Z</time></trkpt><trkpt lat="46.12709064189369" lon="13.611498259828478"><ele>552.1428571428571</ele><time>2026-05-03T16:59:19.998Z</time></trkpt><trkpt lat="46.12711483875145" lon="13.611583984828478"><ele>550.8571428571429</ele><time>2026-05-03T16:59:25.997Z</time></trkpt><trkpt lat="46.12713451012588" lon="13.611686077486109"><ele>549.5714285714286</ele><time>2026-05-03T16:59:33Z</time></trkpt><trkpt lat="46.127170105259694" lon="13.61177039856899"><ele>548.2857142857142</ele><time>2026-05-03T16:59:39Z</time></trkpt><trkpt lat="46.12720279363111" lon="13.611854675693907"><ele>547.0</ele><time>2026-05-03T16:59:46Z</time></trkpt><trkpt lat="46.12723422337595" lon="13.611943328947172"><ele>546.8571428571429</ele><time>2026-05-03T16:59:52Z</time></trkpt><trkpt lat="46.127276440755914" lon="13.612015558128656"><ele>546.7142857142857</ele><time>2026-05-03T16:59:58Z</time></trkpt><trkpt lat="46.127317495229995" lon="13.612113393403982"><ele>546.5714285714286</ele><time>2026-05-03T17:00:03.999Z</time></trkpt><trkpt lat="46.127363841533864" lon="13.612191435620458"><ele>546.4285714285714</ele><time>2026-05-03T17:00:08.999Z</time></trkpt><trkpt lat="46.12741054892382" lon="13.612264427933864"><ele>546.2857142857142</ele><time>2026-05-03T17:00:13.999Z</time></trkpt><trkpt lat="46.12745158713631" lon="13.61234119126154"><ele>546.1428571428571</ele><time>2026-05-03T17:00:18.999Z</time></trkpt><trkpt lat="46.12748705573102" lon="13.61242185867213"><ele>546.0</ele><time>2026-05-03T17:00:23.999Z</time></trkpt><trkpt lat="46.127504696311476" lon="13.612513419535171"><ele>546.0</ele><time>2026-05-03T17:00:28.999Z</time></trkpt><trkpt lat="46.12749930479561" lon="13.612618893120615"><ele>546.0</ele><time>2026-05-03T17:00:33.999Z</time></trkpt><trkpt lat="46.1274346538093" lon="13.612656259738177"><ele>546.0</ele><time>2026-05-03T17:01:16.998Z</time></trkpt><trkpt lat="46.12738843994894" lon="13.612743566265957"><ele>546.0</ele><time>2026-05-03T17:01:22.998Z</time></trkpt><trkpt lat="46.12732931642409" lon="13.612802802609712"><ele>546.0</ele><time>2026-05-03T17:01:28.998Z</time></trkpt><trkpt lat="46.12726998285507" lon="13.612842956259271"><ele>546.0</ele><time>2026-05-03T17:01:35Z</time></trkpt><trkpt lat="46.12720304448651" lon="13.612874774123192"><ele>546.0</ele><time>2026-05-03T17:01:41Z</time></trkpt><trkpt lat="46.127125597867845" lon="13.612895332702266"><ele>547.1428571428571</ele><time>2026-05-03T17:01:48Z</time></trkpt><trkpt lat="46.12705547406861" lon="13.612915435255143"><ele>548.2857142857142</ele><time>2026-05-03T17:01:54Z</time></trkpt><trkpt lat="46.127126394387695" lon="13.612930624726191"><ele>549.4285714285714</ele><time>2026-05-03T17:02:08.999Z</time></trkpt><trkpt lat="46.12718735001158" lon="13.612906354572745"><ele>550.5714285714286</ele><time>2026-05-03T17:02:13.999Z</time></trkpt><trkpt lat="46.127251575735194" lon="13.612880451240336"><ele>551.7142857142857</ele><time>2026-05-03T17:02:19.999Z</time></trkpt><trkpt lat="46.1273207089159" lon="13.612847632037722"><ele>552.8571428571429</ele><time>2026-05-03T17:02:26.999Z</time></trkpt><trkpt lat="46.127398701773934" lon="13.612845910076057"><ele>554.0</ele><time>2026-05-03T17:02:33.999Z</time></trkpt><trkpt lat="46.127390476971826" lon="13.612940345802446"><ele>554.0</ele><time>2026-05-03T17:02:38.999Z</time></trkpt><trkpt lat="46.12735536542738" lon="13.613018098019573"><ele>554.0</ele><time>2026-05-03T17:02:45.999Z</time></trkpt><trkpt lat="46.12731451976828" lon="13.613092474744981"><ele>554.0</ele><time>2026-05-03T17:02:52.998Z</time></trkpt><trkpt lat="46.12728270625786" lon="13.61318137452289"><ele>554.0</ele><time>2026-05-03T17:02:58.998Z</time></trkpt><trkpt lat="46.12725878650297" lon="13.613270887134236"><ele>554.0</ele><time>2026-05-03T17:03:05.998Z</time></trkpt><trkpt lat="46.12725489427686" lon="13.613363588024185"><ele>554.0</ele><time>2026-05-03T17:03:18.998Z</time></trkpt><trkpt lat="46.12730256208276" lon="13.613443530015216"><ele>554.0</ele><time>2026-05-03T17:03:25.998Z</time></trkpt><trkpt lat="46.12735242138643" lon="13.613501333234158"><ele>554.0</ele><time>2026-05-03T17:03:36.997Z</time></trkpt><trkpt lat="46.1273884848806" lon="13.613593356997951"><ele>554.0</ele><time>2026-05-03T17:03:43Z</time></trkpt><trkpt lat="46.12744005494708" lon="13.613663258544749"><ele>554.0</ele><time>2026-05-03T17:03:49Z</time></trkpt><trkpt lat="46.12747669671275" lon="13.61374835233661"><ele>554.0</ele><time>2026-05-03T17:03:54Z</time></trkpt><trkpt lat="46.127512823192895" lon="13.61382928671252"><ele>554.0</ele><time>2026-05-03T17:04:00Z</time></trkpt><trkpt lat="46.1275356321261" lon="13.613928859551063"><ele>554.0</ele><time>2026-05-03T17:04:05Z</time></trkpt><trkpt lat="46.12757780812237" lon="13.614000803840295"><ele>554.0</ele><time>2026-05-03T17:04:09Z</time></trkpt><trkpt lat="46.127621996045114" lon="13.614071317671451"><ele>554.2857142857142</ele><time>2026-05-03T17:04:13Z</time></trkpt><trkpt lat="46.127662287064645" lon="13.614144895842518"><ele>554.5714285714286</ele><time>2026-05-03T17:04:16.999Z</time></trkpt><trkpt lat="46.127710583880685" lon="13.614206168052222"><ele>554.8571428571429</ele><time>2026-05-03T17:04:21.999Z</time></trkpt><trkpt lat="46.12772440661203" lon="13.61430812068675"><ele>555.1428571428571</ele><time>2026-05-03T17:04:29.999Z</time></trkpt><trkpt lat="46.12775304357576" lon="13.614414808317745"><ele>555.4285714285714</ele><time>2026-05-03T17:04:35.999Z</time></trkpt><trkpt lat="46.127793929867664" lon="13.614496087718267"><ele>555.7142857142857</ele><time>2026-05-03T17:04:40.999Z</time></trkpt><trkpt lat="46.127800502956546" lon="13.614597906147905"><ele>556.0</ele><time>2026-05-03T17:04:45.999Z</time></trkpt><trkpt lat="46.127852642126385" lon="13.614668248977086"><ele>555.0</ele><time>2026-05-03T17:04:49.999Z</time></trkpt><trkpt lat="46.12787072389928" lon="13.614769638785628"><ele>554.0</ele><time>2026-05-03T17:04:55.999Z</time></trkpt><trkpt lat="46.1278721354952" lon="13.614862144202489"><ele>553.0</ele><time>2026-05-03T17:05:01.998Z</time></trkpt><trkpt lat="46.12789552670367" lon="13.614962294068034"><ele>552.0</ele><time>2026-05-03T17:05:07.998Z</time></trkpt><trkpt lat="46.12786057714579" lon="13.615042884788062"><ele>551.0</ele><time>2026-05-03T17:05:19.998Z</time></trkpt><trkpt lat="46.12787953332298" lon="13.615138879008862"><ele>550.0</ele><time>2026-05-03T17:05:29.998Z</time></trkpt><trkpt lat="46.127896069289456" lon="13.615239449161542"><ele>549.0</ele><time>2026-05-03T17:05:34.998Z</time></trkpt><trkpt lat="46.127884439836784" lon="13.615336972051301"><ele>548.2857142857142</ele><time>2026-05-03T17:05:39.998Z</time></trkpt><trkpt lat="46.12785759092183" lon="13.615424086977297"><ele>547.5714285714286</ele><time>2026-05-03T17:05:47Z</time></trkpt><trkpt lat="46.12782062640605" lon="13.615512859959923"><ele>546.8571428571429</ele><time>2026-05-03T17:05:52Z</time></trkpt><trkpt lat="46.12778145419538" lon="13.615588858861976"><ele>546.1428571428571</ele><time>2026-05-03T17:05:56Z</time></trkpt><trkpt lat="46.12782673594316" lon="13.61567350582657"><ele>545.4285714285714</ele><time>2026-05-03T17:06:12Z</time></trkpt><trkpt lat="46.12788978580892" lon="13.615672867776373"><ele>544.7142857142857</ele><time>2026-05-03T17:06:18Z</time></trkpt><trkpt lat="46.12795489990641" lon="13.61570181893927"><ele>544.0</ele><time>2026-05-03T17:06:31.999Z</time></trkpt><trkpt lat="46.12802224740135" lon="13.615719918794728"><ele>543.9999999999999</ele><time>2026-05-03T17:06:37.999Z</time></trkpt><trkpt lat="46.12808997142381" lon="13.61568405096544"><ele>544.0</ele><time>2026-05-03T17:06:44.999Z</time></trkpt><trkpt lat="46.12815051525379" lon="13.615629956463795"><ele>544.0</ele><time>2026-05-03T17:06:55.999Z</time></trkpt><trkpt lat="46.12821995931525" lon="13.615607868275834"><ele>544.0</ele><time>2026-05-03T17:07:01.999Z</time></trkpt><trkpt lat="46.128281346860504" lon="13.615562989464582"><ele>544.0</ele><time>2026-05-03T17:07:08.998Z</time></trkpt><trkpt lat="46.1283352460166" lon="13.615512283286163"><ele>543.9999999999999</ele><time>2026-05-03T17:07:20.998Z</time></trkpt><trkpt lat="46.12839438598665" lon="13.615473307173932"><ele>544.0</ele><time>2026-05-03T17:07:27.998Z</time></trkpt><trkpt lat="46.12845638941839" lon="13.615426476453308"><ele>545.7142857142857</ele><time>2026-05-03T17:07:32.998Z</time></trkpt><trkpt lat="46.128512694155226" lon="13.615381261783872"><ele>547.4285714285714</ele><time>2026-05-03T17:07:39.998Z</time></trkpt><trkpt lat="46.12857023901882" lon="13.615342424966334"><ele>549.1428571428571</ele><time>2026-05-03T17:07:46.998Z</time></trkpt><trkpt lat="46.12863665457261" lon="13.615320125011658"><ele>550.8571428571429</ele><time>2026-05-03T17:07:54Z</time></trkpt><trkpt lat="46.12870665765189" lon="13.61531136297308"><ele>552.5714285714286</ele><time>2026-05-03T17:07:59Z</time></trkpt><trkpt lat="46.12878873022459" lon="13.615288229334139"><ele>554.2857142857142</ele><time>2026-05-03T17:08:05Z</time></trkpt><trkpt lat="46.1288743387967" lon="13.615305006203174"><ele>556.0</ele><time>2026-05-03T17:08:11Z</time></trkpt><trkpt lat="46.12894021256113" lon="13.615313624507953"><ele>559.1428571428571</ele><time>2026-05-03T17:08:16Z</time></trkpt><trkpt lat="46.12901730097721" lon="13.615318840759217"><ele>562.2857142857143</ele><time>2026-05-03T17:08:22Z</time></trkpt><trkpt lat="46.129080025469776" lon="13.615307761136545"><ele>565.4285714285714</ele><time>2026-05-03T17:08:27.999Z</time></trkpt><trkpt lat="46.12914509638507" lon="13.615261137038438"><ele>568.5714285714286</ele><time>2026-05-03T17:08:33.999Z</time></trkpt><trkpt lat="46.129202463935684" lon="13.61521468650213"><ele>571.7142857142857</ele><time>2026-05-03T17:08:39.999Z</time></trkpt><trkpt lat="46.12925623983413" lon="13.615140830523746"><ele>574.8571428571429</ele><time>2026-05-03T17:08:45.999Z</time></trkpt><trkpt lat="46.12931222785803" lon="13.615082031891072"><ele>578.0</ele><time>2026-05-03T17:08:55.999Z</time></trkpt><trkpt lat="46.129383333389505" lon="13.615064187538222"><ele>578.1428571428571</ele><time>2026-05-03T17:08:59.999Z</time></trkpt><trkpt lat="46.12944742141229" lon="13.615019026203028"><ele>578.2857142857142</ele><time>2026-05-03T17:09:05.999Z</time></trkpt><trkpt lat="46.129514703933296" lon="13.615003513677289"><ele>578.4285714285713</ele><time>2026-05-03T17:09:10.998Z</time></trkpt><trkpt lat="46.12958529230256" lon="13.614969917561528"><ele>578.5714285714286</ele><time>2026-05-03T17:09:16.998Z</time></trkpt><trkpt lat="46.12965098765573" lon="13.614954562873825"><ele>578.7142857142857</ele><time>2026-05-03T17:09:22.998Z</time></trkpt><trkpt lat="46.12971119711107" lon="13.615010846123816"><ele>578.8571428571428</ele><time>2026-05-03T17:09:26.998Z</time></trkpt><trkpt lat="46.12976692160735" lon="13.615057142044733"><ele>579.0</ele><time>2026-05-03T17:09:31.998Z</time></trkpt><trkpt lat="46.12982572067019" lon="13.615099984429904"><ele>577.7142857142857</ele><time>2026-05-03T17:09:38.998Z</time></trkpt><trkpt lat="46.12989889001286" lon="13.61507346586631"><ele>576.4285714285714</ele><time>2026-05-03T17:09:46.998Z</time></trkpt><trkpt lat="46.12996726252779" lon="13.615054527613212"><ele>575.1428571428571</ele><time>2026-05-03T17:09:54.998Z</time></trkpt><trkpt lat="46.13001505849929" lon="13.614976657069489"><ele>573.8571428571429</ele><time>2026-05-03T17:10:09Z</time></trkpt><trkpt lat="46.13005191205016" lon="13.61488972423559"><ele>572.5714285714286</ele><time>2026-05-03T17:10:15Z</time></trkpt><trkpt lat="46.130088571779254" lon="13.614807264420909"><ele>571.2857142857142</ele><time>2026-05-03T17:10:23Z</time></trkpt><trkpt lat="46.13015108285807" lon="13.61476590214172"><ele>570.0</ele><time>2026-05-03T17:10:30Z</time></trkpt><trkpt lat="46.13022800052599" lon="13.614743398576655"><ele>570.0</ele><time>2026-05-03T17:10:38.999Z</time></trkpt><trkpt lat="46.13030714178966" lon="13.614748106296371"><ele>570.0</ele><time>2026-05-03T17:10:45.999Z</time></trkpt><trkpt lat="46.13037101952315" lon="13.614685626528617"><ele>570.0</ele><time>2026-05-03T17:10:58.999Z</time></trkpt><trkpt lat="46.130437065719164" lon="13.614666926034076"><ele>570.0</ele><time>2026-05-03T17:11:04.999Z</time></trkpt><trkpt lat="46.13050922283331" lon="13.614664054610952"><ele>570.0</ele><time>2026-05-03T17:11:07.999Z</time></trkpt><trkpt lat="46.13057032256465" lon="13.61473174516785"><ele>570.0</ele><time>2026-05-03T17:11:11.999Z</time></trkpt><trkpt lat="46.130628727567355" lon="13.61477180962076"><ele>570.0</ele><time>2026-05-03T17:11:17.999Z</time></trkpt><trkpt lat="46.13066939676089" lon="13.614846910238406"><ele>570.7142857142857</ele><time>2026-05-03T17:11:30.998Z</time></trkpt><trkpt lat="46.130724442538295" lon="13.614915457234751"><ele>571.4285714285714</ele><time>2026-05-03T17:11:42.998Z</time></trkpt><trkpt lat="46.13078036488293" lon="13.614971556725441"><ele>572.1428571428571</ele><time>2026-05-03T17:11:48.998Z</time></trkpt><trkpt lat="46.130830343889066" lon="13.615063949328325"><ele>572.8571428571429</ele><time>2026-05-03T17:11:58.998Z</time></trkpt><trkpt lat="46.13088865592036" lon="13.61510703055137"><ele>573.5714285714286</ele><time>2026-05-03T17:12:05Z</time></trkpt><trkpt lat="46.13094311094363" lon="13.615170576877352"><ele>574.2857142857142</ele><time>2026-05-03T17:12:16Z</time></trkpt><trkpt lat="46.13098242919903" lon="13.61525389448398"><ele>575.0</ele><time>2026-05-03T17:12:22Z</time></trkpt><trkpt lat="46.13103833871761" lon="13.615309431139938"><ele>575.0</ele><time>2026-05-03T17:12:32Z</time></trkpt><trkpt lat="46.13110743722811" lon="13.615305073429175"><ele>575.0</ele><time>2026-05-03T17:12:40.999Z</time></trkpt><trkpt lat="46.131175781495585" lon="13.615290935991949"><ele>575.0</ele><time>2026-05-03T17:12:46.999Z</time></trkpt><trkpt lat="46.13124176897013" lon="13.615291727330803"><ele>575.0</ele><time>2026-05-03T17:12:53.999Z</time></trkpt><trkpt lat="46.131312748433274" lon="13.615304883940034"><ele>575.0</ele><time>2026-05-03T17:13:01.999Z</time></trkpt><trkpt lat="46.13138072132333" lon="13.615297209261094"><ele>575.0</ele><time>2026-05-03T17:13:06.999Z</time></trkpt><trkpt lat="46.13144689314032" lon="13.615287814200597"><ele>575.0</ele><time>2026-05-03T17:13:17.999Z</time></trkpt><trkpt lat="46.13152706569647" lon="13.615251768706273"><ele>575.8571428571429</ele><time>2026-05-03T17:13:25.998Z</time></trkpt><trkpt lat="46.13159125965264" lon="13.615220205847478"><ele>576.7142857142857</ele><time>2026-05-03T17:13:29.998Z</time></trkpt><trkpt lat="46.13166409794881" lon="13.615231861721593"><ele>577.5714285714286</ele><time>2026-05-03T17:13:36.998Z</time></trkpt><trkpt lat="46.13174658426945" lon="13.615252537811212"><ele>578.4285714285714</ele><time>2026-05-03T17:13:51.998Z</time></trkpt><trkpt lat="46.13181093520742" lon="13.615239455758324"><ele>579.2857142857142</ele><time>2026-05-03T17:13:57.998Z</time></trkpt><trkpt lat="46.131837594223605" lon="13.615145242558537"><ele>580.1428571428571</ele><time>2026-05-03T17:14:03.998Z</time></trkpt><trkpt lat="46.13190125958817" lon="13.615151833164333"><ele>581.0</ele><time>2026-05-03T17:14:10Z</time></trkpt><trkpt lat="46.13197268831937" lon="13.61510310545774"><ele>581.0</ele><time>2026-05-03T17:14:17Z</time></trkpt><trkpt lat="46.132030819970325" lon="13.615063751048877"><ele>581.0</ele><time>2026-05-03T17:14:22Z</time></trkpt><trkpt lat="46.13208803298437" lon="13.615011199973782"><ele>581.0</ele><time>2026-05-03T17:14:27Z</time></trkpt><trkpt lat="46.13214120219807" lon="13.614939118477283"><ele>581.0</ele><time>2026-05-03T17:14:34Z</time></trkpt><trkpt lat="46.132207414296985" lon="13.614890363229707"><ele>581.0</ele><time>2026-05-03T17:14:40Z</time></trkpt><trkpt lat="46.13224959492941" lon="13.614814239816447"><ele>581.0</ele><time>2026-05-03T17:14:52.999Z</time></trkpt><trkpt lat="46.13231598057667" lon="13.614827118751816"><ele>581.0</ele><time>2026-05-03T17:14:58.999Z</time></trkpt><trkpt lat="46.1323777779177" lon="13.6147597033354"><ele>579.0</ele><time>2026-05-03T17:15:09.999Z</time></trkpt><trkpt lat="46.132433332316644" lon="13.614712877995915"><ele>577.0</ele><time>2026-05-03T17:15:14.999Z</time></trkpt><trkpt lat="46.13249983516468" lon="13.614654079097852"><ele>575.0</ele><time>2026-05-03T17:15:20.999Z</time></trkpt><trkpt lat="46.132562032357704" lon="13.614703149615487"><ele>573.0</ele><time>2026-05-03T17:15:32.998Z</time></trkpt><trkpt lat="46.13262780385244" lon="13.614724259199782"><ele>571.0</ele><time>2026-05-03T17:15:40.998Z</time></trkpt><trkpt lat="46.13269365948292" lon="13.614690025674857"><ele>569.0</ele><time>2026-05-03T17:15:48.998Z</time></trkpt><trkpt lat="46.13276029266924" lon="13.614689735801122"><ele>567.0</ele><time>2026-05-03T17:15:58.998Z</time></trkpt><trkpt lat="46.13284954499677" lon="13.614750658113481"><ele>567.0</ele><time>2026-05-03T17:16:16Z</time></trkpt><trkpt lat="46.13291209470514" lon="13.614697958504262"><ele>567.0</ele><time>2026-05-03T17:16:28Z</time></trkpt><trkpt lat="46.13297313237972" lon="13.614733688056031"><ele>567.0</ele><time>2026-05-03T17:16:38Z</time></trkpt><trkpt lat="46.133008411729186" lon="13.614818747568094"><ele>567.0</ele><time>2026-05-03T17:16:47Z</time></trkpt><trkpt lat="46.13304238978134" lon="13.614896475851086"><ele>567.0</ele><time>2026-05-03T17:16:53.999Z</time></trkpt><trkpt lat="46.13307262762666" lon="13.61498216111022"><ele>567.0</ele><time>2026-05-03T17:17:04.999Z</time></trkpt><trkpt lat="46.133091513455675" lon="13.615074993807431"><ele>567.0</ele><time>2026-05-03T17:17:11.999Z</time></trkpt><trkpt lat="46.133118479954334" lon="13.615162587575393"><ele>567.0</ele><time>2026-05-03T17:17:18.999Z</time></trkpt><trkpt lat="46.133169024925614" lon="13.615220287587256"><ele>567.0</ele><time>2026-05-03T17:17:25.999Z</time></trkpt><trkpt lat="46.13321308256271" lon="13.615301068015969"><ele>567.0</ele><time>2026-05-03T17:17:31.999Z</time></trkpt><trkpt lat="46.133269223240546" lon="13.615377298755714"><ele>567.0</ele><time>2026-05-03T17:17:39.998Z</time></trkpt><trkpt lat="46.133327349590445" lon="13.615443284087588"><ele>567.0</ele><time>2026-05-03T17:17:48.998Z</time></trkpt><trkpt lat="46.13338632155923" lon="13.615480754645267"><ele>567.0</ele><time>2026-05-03T17:17:55.998Z</time></trkpt><trkpt lat="46.13344116752265" lon="13.615531315426978"><ele>567.0</ele><time>2026-05-03T17:18:00.998Z</time></trkpt><trkpt lat="46.133495694958754" lon="13.615592072308441"><ele>567.1428571428571</ele><time>2026-05-03T17:18:09.998Z</time></trkpt><trkpt lat="46.1335341181981" lon="13.615678095483535"><ele>567.2857142857142</ele><time>2026-05-03T17:18:16.998Z</time></trkpt><trkpt lat="46.13355416655899" lon="13.615770105139012"><ele>567.4285714285714</ele><time>2026-05-03T17:18:23Z</time></trkpt><trkpt lat="46.1335920713865" lon="13.615848274970093"><ele>567.5714285714286</ele><time>2026-05-03T17:18:31Z</time></trkpt><trkpt lat="46.133608429851435" lon="13.615938124130647"><ele>567.7142857142857</ele><time>2026-05-03T17:18:37Z</time></trkpt><trkpt lat="46.13364148245324" lon="13.616017352249736"><ele>567.8571428571429</ele><time>2026-05-03T17:18:43Z</time></trkpt><trkpt lat="46.1336579106194" lon="13.616109370028171"><ele>568.0</ele><time>2026-05-03T17:18:55Z</time></trkpt><trkpt lat="46.13370011656804" lon="13.616177210838144"><ele>566.7142857142857</ele><time>2026-05-03T17:20:33Z</time></trkpt><trkpt lat="46.133682467375706" lon="13.616273104881538"><ele>565.4285714285713</ele><time>2026-05-03T17:21:04.999Z</time></trkpt><trkpt lat="46.13373174261418" lon="13.616352888454065"><ele>564.1428571428571</ele><time>2026-05-03T17:21:12.999Z</time></trkpt><trkpt lat="46.13378552207191" lon="13.6164081501087"><ele>562.8571428571429</ele><time>2026-05-03T17:21:19.999Z</time></trkpt><trkpt lat="46.133843263463326" lon="13.616450328844829"><ele>561.5714285714287</ele><time>2026-05-03T17:21:28.999Z</time></trkpt><trkpt lat="46.13387177641265" lon="13.616546313169529"><ele>560.2857142857143</ele><time>2026-05-03T17:21:34.999Z</time></trkpt><trkpt lat="46.13390401743849" lon="13.616635703469024"><ele>559.0</ele><time>2026-05-03T17:21:41.999Z</time></trkpt><trkpt lat="46.13393738350858" lon="13.61671428858098"><ele>559.0</ele><time>2026-05-03T17:21:47.998Z</time></trkpt><trkpt lat="46.13395293973838" lon="13.616806775028653"><ele>559.0</ele><time>2026-05-03T17:21:53.998Z</time></trkpt><trkpt lat="46.133961878859594" lon="13.616901333857257"><ele>559.0</ele><time>2026-05-03T17:21:59.998Z</time></trkpt><trkpt lat="46.13398210550378" lon="13.616808985042505"><ele>559.0</ele><time>2026-05-03T17:22:20.998Z</time></trkpt><trkpt lat="46.13405095402846" lon="13.616838104544392"><ele>559.0</ele><time>2026-05-03T17:22:34Z</time></trkpt><trkpt lat="46.134098610428275" lon="13.616903886137544"><ele>559.0</ele><time>2026-05-03T17:22:49Z</time></trkpt><trkpt lat="46.13411531502216" lon="13.6170036987911"><ele>559.0</ele><time>2026-05-03T17:22:57Z</time></trkpt><trkpt lat="46.13410495260942" lon="13.617096142277692"><ele>559.8571428571429</ele><time>2026-05-03T17:23:02Z</time></trkpt><trkpt lat="46.134086844638865" lon="13.617184454475831"><ele>560.7142857142858</ele><time>2026-05-03T17:23:08.999Z</time></trkpt><trkpt lat="46.13406303501905" lon="13.617283039129289"><ele>561.5714285714286</ele><time>2026-05-03T17:23:17.999Z</time></trkpt><trkpt lat="46.134036018829285" lon="13.617383112281797"><ele>562.4285714285714</ele><time>2026-05-03T17:23:24.999Z</time></trkpt><trkpt lat="46.134000182821346" lon="13.617476071999407"><ele>563.2857142857142</ele><time>2026-05-03T17:23:31.999Z</time></trkpt><trkpt lat="46.13398481419408" lon="13.61758429248521"><ele>564.1428571428571</ele><time>2026-05-03T17:23:38.999Z</time></trkpt><trkpt lat="46.13395384675738" lon="13.617667678436842"><ele>565.0</ele><time>2026-05-03T17:23:44.999Z</time></trkpt><trkpt lat="46.13394386064547" lon="13.61776701009982"><ele>565.9999999999999</ele><time>2026-05-03T17:23:49.999Z</time></trkpt><trkpt lat="46.133951105651605" lon="13.61786526355297"><ele>567.0</ele><time>2026-05-03T17:23:54.998Z</time></trkpt><trkpt lat="46.133973467550284" lon="13.617963578542623"><ele>568.0</ele><time>2026-05-03T17:24:00.998Z</time></trkpt><trkpt lat="46.134000693650606" lon="13.618067492028603"><ele>569.0</ele><time>2026-05-03T17:24:06.998Z</time></trkpt><trkpt lat="46.134013197725245" lon="13.618163412669636"><ele>570.0</ele><time>2026-05-03T17:24:12.998Z</time></trkpt><trkpt lat="46.134023040605015" lon="13.61827126235144"><ele>570.9999999999999</ele><time>2026-05-03T17:24:27.998Z</time></trkpt><trkpt lat="46.134012356708155" lon="13.618365951644597"><ele>572.0</ele><time>2026-05-03T17:24:34.998Z</time></trkpt><trkpt lat="46.13405573840747" lon="13.618437430426242"><ele>573.8571428571428</ele><time>2026-05-03T17:24:52Z</time></trkpt><trkpt lat="46.134117506612476" lon="13.618416879437952"><ele>575.7142857142857</ele><time>2026-05-03T17:25:39.999Z</time></trkpt><trkpt lat="46.13418337203891" lon="13.61838135187889"><ele>577.5714285714286</ele><time>2026-05-03T17:25:47.999Z</time></trkpt><trkpt lat="46.134246379182656" lon="13.618348028932239"><ele>579.4285714285713</ele><time>2026-05-03T17:25:55.999Z</time></trkpt><trkpt lat="46.13432346899423" lon="13.61834294193336"><ele>581.2857142857142</ele><time>2026-05-03T17:26:02.998Z</time></trkpt><trkpt lat="46.13440601741346" lon="13.618333521223304"><ele>583.1428571428571</ele><time>2026-05-03T17:26:08.998Z</time></trkpt><trkpt lat="46.1344783061865" lon="13.618332190685823"><ele>585.0</ele><time>2026-05-03T17:26:13.998Z</time></trkpt><trkpt lat="46.13455087027942" lon="13.618341314237655"><ele>585.0</ele><time>2026-05-03T17:26:19.998Z</time></trkpt><trkpt lat="46.13462456987946" lon="13.61834255125607"><ele>585.0</ele><time>2026-05-03T17:26:26.998Z</time></trkpt><trkpt lat="46.13469184049726" lon="13.618341063245019"><ele>585.0</ele><time>2026-05-03T17:26:33.998Z</time></trkpt><trkpt lat="46.13475975470003" lon="13.618343003207007"><ele>585.0</ele><time>2026-05-03T17:26:40.998Z</time></trkpt><trkpt lat="46.134833434173515" lon="13.618314447699266"><ele>585.0</ele><time>2026-05-03T17:26:48Z</time></trkpt><trkpt lat="46.13489923871382" lon="13.618284750046854"><ele>585.0</ele><time>2026-05-03T17:26:55Z</time></trkpt><trkpt lat="46.13496048681675" lon="13.618257882055415"><ele>585.0</ele><time>2026-05-03T17:27:02Z</time></trkpt><trkpt lat="46.13502474487411" lon="13.618235541611613"><ele>585.2857142857143</ele><time>2026-05-03T17:27:12Z</time></trkpt><trkpt lat="46.13508727385917" lon="13.618201021204777"><ele>585.5714285714286</ele><time>2026-05-03T17:27:20Z</time></trkpt><trkpt lat="46.135153241492205" lon="13.61820454441355"><ele>585.8571428571429</ele><time>2026-05-03T17:27:25.999Z</time></trkpt><trkpt lat="46.13521802025257" lon="13.618218772565985"><ele>586.1428571428571</ele><time>2026-05-03T17:27:31.999Z</time></trkpt><trkpt lat="46.135287094538896" lon="13.618233842227987"><ele>586.4285714285714</ele><time>2026-05-03T17:27:36.999Z</time></trkpt><trkpt lat="46.13535035564161" lon="13.618244660799185"><ele>586.7142857142858</ele><time>2026-05-03T17:27:41.999Z</time></trkpt><trkpt lat="46.1354031394148" lon="13.618314867737572"><ele>587.0</ele><time>2026-05-03T17:27:46.999Z</time></trkpt><trkpt lat="46.13546046260708" lon="13.61837466047518"><ele>587.0</ele><time>2026-05-03T17:27:53.999Z</time></trkpt><trkpt lat="46.13549769460472" lon="13.618450779560305"><ele>587.0</ele><time>2026-05-03T17:28:01.999Z</time></trkpt><trkpt lat="46.135526946413364" lon="13.618540581216886"><ele>587.0</ele><time>2026-05-03T17:28:07.998Z</time></trkpt><trkpt lat="46.13558244790141" lon="13.618613522983196"><ele>587.0</ele><time>2026-05-03T17:28:16.998Z</time></trkpt><trkpt lat="46.135621196327804" lon="13.61869249025708"><ele>587.0</ele><time>2026-05-03T17:28:25.998Z</time></trkpt><trkpt lat="46.13563065046833" lon="13.618792579909465"><ele>587.0</ele><time>2026-05-03T17:28:31.998Z</time></trkpt><trkpt lat="46.135679260646974" lon="13.618859668160878"><ele>587.0</ele><time>2026-05-03T17:28:38.998Z</time></trkpt><trkpt lat="46.13570789406823" lon="13.618946794091272"><ele>586.0</ele><time>2026-05-03T17:28:44.998Z</time></trkpt><trkpt lat="46.135747357905565" lon="13.619020684929822"><ele>585.0</ele><time>2026-05-03T17:28:50.997Z</time></trkpt><trkpt lat="46.13576483607975" lon="13.61911181485248"><ele>584.0</ele><time>2026-05-03T17:28:57Z</time></trkpt><trkpt lat="46.13578000570168" lon="13.619205830089848"><ele>583.0</ele><time>2026-05-03T17:29:02Z</time></trkpt><trkpt lat="46.13579699352007" lon="13.619297267884757"><ele>582.0</ele><time>2026-05-03T17:29:07Z</time></trkpt><trkpt lat="46.1358511049706" lon="13.619379178584941"><ele>581.0</ele><time>2026-05-03T17:29:13Z</time></trkpt><trkpt lat="46.135901212987974" lon="13.619451122826867"><ele>580.0</ele><time>2026-05-03T17:29:19Z</time></trkpt><trkpt lat="46.13596460937488" lon="13.619502598744683"><ele>575.2857142857143</ele><time>2026-05-03T17:29:25.999Z</time></trkpt><trkpt lat="46.13604265172233" lon="13.619527835536468"><ele>570.5714285714287</ele><time>2026-05-03T17:29:31.999Z</time></trkpt><trkpt lat="46.13610822636837" lon="13.619530329541446"><ele>565.8571428571429</ele><time>2026-05-03T17:29:36.999Z</time></trkpt><trkpt lat="46.13617874336009" lon="13.619524094139502"><ele>561.1428571428571</ele><time>2026-05-03T17:29:43.999Z</time></trkpt><trkpt lat="46.13624863365703" lon="13.619514974627554"><ele>556.4285714285713</ele><time>2026-05-03T17:29:50.999Z</time></trkpt><trkpt lat="46.13631413885573" lon="13.619541280246207"><ele>551.7142857142857</ele><time>2026-05-03T17:29:55.999Z</time></trkpt><trkpt lat="46.136375888538986" lon="13.61956875895598"><ele>547.0</ele><time>2026-05-03T17:30:00.999Z</time></trkpt><trkpt lat="46.13644012323093" lon="13.61953589746563"><ele>547.0</ele><time>2026-05-03T17:30:09.998Z</time></trkpt><trkpt lat="46.136511726314225" lon="13.619486255157208"><ele>547.0</ele><time>2026-05-03T17:30:25.998Z</time></trkpt><trkpt lat="46.13658320472663" lon="13.619492335609511"><ele>547.0</ele><time>2026-05-03T17:30:32.998Z</time></trkpt><trkpt lat="46.136652798046114" lon="13.619533680216524"><ele>547.0</ele><time>2026-05-03T17:30:37.998Z</time></trkpt><trkpt lat="46.13669847803003" lon="13.619600959228055"><ele>547.0</ele><time>2026-05-03T17:30:42.998Z</time></trkpt><trkpt lat="46.13675428988138" lon="13.619668354804977"><ele>547.0</ele><time>2026-05-03T17:31:05Z</time></trkpt><trkpt lat="46.136812312661725" lon="13.619703882784945"><ele>547.0</ele><time>2026-05-03T17:31:12Z</time></trkpt><trkpt lat="46.13686985231244" lon="13.619743695156915"><ele>552.1666666666667</ele><time>2026-05-03T17:31:19Z</time></trkpt><trkpt lat="46.13692654329543" lon="13.619789637653755"><ele>557.3333333333334</ele><time>2026-05-03T17:31:26Z</time></trkpt><trkpt lat="46.13699093212742" lon="13.619823169927166"><ele>562.5</ele><time>2026-05-03T17:31:32.999Z</time></trkpt><trkpt lat="46.13698440952358" lon="13.619730980550125"><ele>567.6666666666666</ele><time>2026-05-03T17:31:48.999Z</time></trkpt><trkpt lat="46.136951686404714" lon="13.619631157451598"><ele>572.8333333333333</ele><time>2026-05-03T17:32:32.998Z</time></trkpt><trkpt lat="46.136983726769714" lon="13.619747036953076"><ele>578.0</ele><time>2026-05-03T17:33:19Z</time></trkpt><trkpt lat="46.13698970171406" lon="13.619929342905143"><ele>578.0</ele><time>2026-05-03T17:33:29Z</time></trkpt><trkpt lat="46.1370025638299" lon="13.620049376100043"><ele>578.0</ele><time>2026-05-03T17:33:54.999Z</time></trkpt><trkpt lat="46.137025608736145" lon="13.62014575143297"><ele>578.0</ele><time>2026-05-03T17:33:59.999Z</time></trkpt><trkpt lat="46.13704041410367" lon="13.620242668069784"><ele>578.0</ele><time>2026-05-03T17:34:07.999Z</time></trkpt><trkpt lat="46.137050169416554" lon="13.620334339828354"><ele>578.0</ele><time>2026-05-03T17:34:14.999Z</time></trkpt><trkpt lat="46.137072982438326" lon="13.620429792654136"><ele>578.0</ele><time>2026-05-03T17:34:22.998Z</time></trkpt><trkpt lat="46.13709874108109" lon="13.620515578272855"><ele>578.0</ele><time>2026-05-03T17:34:28.998Z</time></trkpt><trkpt lat="46.13715038470227" lon="13.620569291376952"><ele>577.1428571428571</ele><time>2026-05-03T17:34:36.998Z</time></trkpt><trkpt lat="46.13719244294025" lon="13.62063972420539"><ele>576.2857142857142</ele><time>2026-05-03T17:34:44.998Z</time></trkpt><trkpt lat="46.13721257775834" lon="13.620728709760032"><ele>575.4285714285713</ele><time>2026-05-03T17:34:52.998Z</time></trkpt><trkpt lat="46.137228534992765" lon="13.62082558591788"><ele>574.5714285714286</ele><time>2026-05-03T17:35:03.998Z</time></trkpt><trkpt lat="46.13725356032099" lon="13.620918307706749"><ele>573.7142857142857</ele><time>2026-05-03T17:35:13Z</time></trkpt><trkpt lat="46.13730712907681" lon="13.62102046484498"><ele>572.8571428571428</ele><time>2026-05-03T17:35:27Z</time></trkpt><trkpt lat="46.13733311412774" lon="13.621105812832369"><ele>572.0</ele><time>2026-05-03T17:35:39Z</time></trkpt><trkpt lat="46.137353787380896" lon="13.621195594499781"><ele>577.8571428571428</ele><time>2026-05-03T17:35:47.999Z</time></trkpt><trkpt lat="46.137414420310506" lon="13.621230082610353"><ele>583.7142857142857</ele><time>2026-05-03T17:35:59.999Z</time></trkpt><trkpt lat="46.137434444972605" lon="13.621325543052167"><ele>589.5714285714286</ele><time>2026-05-03T17:36:10.999Z</time></trkpt><trkpt lat="46.13743692799433" lon="13.6214164348212"><ele>595.4285714285713</ele><time>2026-05-03T17:36:19.999Z</time></trkpt><trkpt lat="46.13749940205168" lon="13.621390662190205"><ele>601.2857142857142</ele><time>2026-05-03T17:36:36.998Z</time></trkpt><trkpt lat="46.137580715527456" lon="13.621407785946012"><ele>607.1428571428571</ele><time>2026-05-03T17:36:44.998Z</time></trkpt><trkpt lat="46.137597722952535" lon="13.62152703073426"><ele>613.0</ele><time>2026-05-03T17:36:58.998Z</time></trkpt><trkpt lat="46.137522962386065" lon="13.621591115243863"><ele>613.0</ele><time>2026-05-03T17:37:32Z</time></trkpt><trkpt lat="46.13745062338325" lon="13.621641820463207"><ele>613.0</ele><time>2026-05-03T17:37:59.999Z</time></trkpt><trkpt lat="46.13742576916419" lon="13.621739971912667"><ele>613.0</ele><time>2026-05-03T17:38:53.998Z</time></trkpt><trkpt lat="46.13751585274856" lon="13.621707583153338"><ele>613.0</ele><time>2026-05-03T17:39:01.998Z</time></trkpt><trkpt lat="46.137540129991606" lon="13.621611346968004"><ele>613.0</ele><time>2026-05-03T17:39:03.998Z</time></trkpt><trkpt lat="46.1375905849488" lon="13.621509664271192"><ele>613.0</ele><time>2026-05-03T17:39:09.998Z</time></trkpt><trkpt lat="46.137629928513746" lon="13.62143233065461"><ele>613.0</ele><time>2026-05-03T17:39:13.998Z</time></trkpt><trkpt lat="46.13769193623123" lon="13.621392167534195"><ele>613.0</ele><time>2026-05-03T17:39:17.998Z</time></trkpt><trkpt lat="46.13772784572712" lon="13.621305271757128"><ele>613.0</ele><time>2026-05-03T17:39:22.999Z</time></trkpt><trkpt lat="46.13777165710165" lon="13.621214425998625"><ele>613.0</ele><time>2026-05-03T17:39:28.999Z</time></trkpt><trkpt lat="46.13781564513853" lon="13.621122966075463"><ele>613.0</ele><time>2026-05-03T17:39:34Z</time></trkpt><trkpt lat="46.13784807994753" lon="13.621043567052403"><ele>613.0</ele><time>2026-05-03T17:39:40Z</time></trkpt><trkpt lat="46.13787086559719" lon="13.62094406208776"><ele>613.0</ele><time>2026-05-03T17:39:45.999Z</time></trkpt><trkpt lat="46.13790279999098" lon="13.620864772169897"><ele>613.5714285714286</ele><time>2026-05-03T17:39:51.999Z</time></trkpt><trkpt lat="46.1379292937227" lon="13.62076891376962"><ele>614.1428571428571</ele><time>2026-05-03T17:40:00.999Z</time></trkpt><trkpt lat="46.137995625414504" lon="13.620721715143592"><ele>614.7142857142858</ele><time>2026-05-03T17:40:05.999Z</time></trkpt><trkpt lat="46.138056364641216" lon="13.620691187614204"><ele>615.2857142857142</ele><time>2026-05-03T17:40:10.999Z</time></trkpt><trkpt lat="46.13813524100122" lon="13.620673361952344"><ele>615.8571428571428</ele><time>2026-05-03T17:40:14.999Z</time></trkpt><trkpt lat="46.138204907861876" lon="13.620678138981585"><ele>616.4285714285714</ele><time>2026-05-03T17:40:18.999Z</time></trkpt><trkpt lat="46.13827426031282" lon="13.620720161204458"><ele>617.0</ele><time>2026-05-03T17:40:23.999Z</time></trkpt><trkpt lat="46.138334700840204" lon="13.620746285427083"><ele>618.5714285714286</ele><time>2026-05-03T17:40:28.999Z</time></trkpt><trkpt lat="46.13839327980837" lon="13.620789651345925"><ele>620.1428571428571</ele><time>2026-05-03T17:40:33.999Z</time></trkpt><trkpt lat="46.13844913347221" lon="13.620838645950684"><ele>621.7142857142857</ele><time>2026-05-03T17:40:38.998Z</time></trkpt><trkpt lat="46.13850771419243" lon="13.620898275354849"><ele>623.2857142857142</ele><time>2026-05-03T17:40:44.998Z</time></trkpt><trkpt lat="46.13857184606304" lon="13.620936134410096"><ele>624.8571428571429</ele><time>2026-05-03T17:40:50.998Z</time></trkpt><trkpt lat="46.138637210276094" lon="13.620972778244989"><ele>626.4285714285713</ele><time>2026-05-03T17:40:56.998Z</time></trkpt><trkpt lat="46.138706622248094" lon="13.621002989049371"><ele>628.0</ele><time>2026-05-03T17:41:06.998Z</time></trkpt><trkpt lat="46.13876861601452" lon="13.621039395559945"><ele>627.9999999999999</ele><time>2026-05-03T17:41:20.998Z</time></trkpt><trkpt lat="46.13883765920176" lon="13.62103028265689"><ele>628.0</ele><time>2026-05-03T17:41:30Z</time></trkpt><trkpt lat="46.13890540884106" lon="13.621043755146056"><ele>628.0</ele><time>2026-05-03T17:41:35Z</time></trkpt><trkpt lat="46.138965382718794" lon="13.621013733962364"><ele>628.0</ele><time>2026-05-03T17:41:41Z</time></trkpt><trkpt lat="46.13903399555629" lon="13.620991816045986"><ele>628.0</ele><time>2026-05-03T17:41:47Z</time></trkpt><trkpt lat="46.13910203671942" lon="13.620976274503889"><ele>627.9999999999999</ele><time>2026-05-03T17:41:53Z</time></trkpt><trkpt lat="46.13917034217168" lon="13.620949964706586"><ele>628.0</ele><time>2026-05-03T17:41:59Z</time></trkpt><trkpt lat="46.13924009490149" lon="13.620920171283547"><ele>629.1428571428571</ele><time>2026-05-03T17:42:04.999Z</time></trkpt><trkpt lat="46.13930237999947" lon="13.620901723234859"><ele>630.2857142857142</ele><time>2026-05-03T17:42:10.999Z</time></trkpt><trkpt lat="46.13936754180122" lon="13.620878722424749"><ele>631.4285714285713</ele><time>2026-05-03T17:42:15.999Z</time></trkpt><trkpt lat="46.139429208377926" lon="13.620846826531457"><ele>632.5714285714286</ele><time>2026-05-03T17:42:27.999Z</time></trkpt><trkpt lat="46.13949497085752" lon="13.620856636259782"><ele>633.7142857142858</ele><time>2026-05-03T17:42:33.999Z</time></trkpt><trkpt lat="46.1395569363659" lon="13.620878517031578"><ele>634.8571428571428</ele><time>2026-05-03T17:42:38.999Z</time></trkpt><trkpt lat="46.13962963854297" lon="13.620883196941161"><ele>636.0</ele><time>2026-05-03T17:42:43.999Z</time></trkpt><trkpt lat="46.13969207886652" lon="13.62086381260223"><ele>636.0</ele><time>2026-05-03T17:42:48.999Z</time></trkpt><trkpt lat="46.13976267023112" lon="13.620874767797183"><ele>636.0</ele><time>2026-05-03T17:42:53.998Z</time></trkpt><trkpt lat="46.13983497814115" lon="13.620878791934098"><ele>636.0</ele><time>2026-05-03T17:42:58.998Z</time></trkpt><trkpt lat="46.139920929622456" lon="13.620846560035716"><ele>636.0</ele><time>2026-05-03T17:43:04.998Z</time></trkpt><trkpt lat="46.139984150305565" lon="13.620789850794322"><ele>636.0</ele><time>2026-05-03T17:43:10.998Z</time></trkpt><trkpt lat="46.14004271522199" lon="13.620732458745128"><ele>636.0</ele><time>2026-05-03T17:43:16.998Z</time></trkpt><trkpt lat="46.14008883434506" lon="13.620658803083577"><ele>636.0</ele><time>2026-05-03T17:43:22.998Z</time></trkpt><trkpt lat="46.14013587269062" lon="13.620569598587673"><ele>635.7142857142857</ele><time>2026-05-03T17:43:28.998Z</time></trkpt><trkpt lat="46.14017849231017" lon="13.620479814304936"><ele>635.4285714285714</ele><time>2026-05-03T17:43:46Z</time></trkpt><trkpt lat="46.14019972385829" lon="13.620383845367229"><ele>635.1428571428571</ele><time>2026-05-03T17:43:51Z</time></trkpt><trkpt lat="46.14023599344487" lon="13.620296666296435"><ele>634.8571428571429</ele><time>2026-05-03T17:43:56Z</time></trkpt><trkpt lat="46.1402857945456" lon="13.620240231209046"><ele>634.5714285714286</ele><time>2026-05-03T17:44:00Z</time></trkpt><trkpt lat="46.140355583544675" lon="13.620222845282537"><ele>634.2857142857143</ele><time>2026-05-03T17:44:05Z</time></trkpt><trkpt lat="46.14042253458353" lon="13.62023128734936"><ele>634.0</ele><time>2026-05-03T17:44:10Z</time></trkpt><trkpt lat="46.14048368024126" lon="13.620207901980317"><ele>634.0</ele><time>2026-05-03T17:44:15.999Z</time></trkpt><trkpt lat="46.140547417737565" lon="13.620193203084147"><ele>634.0</ele><time>2026-05-03T17:44:22.999Z</time></trkpt><trkpt lat="46.14061205011735" lon="13.62017923194524"><ele>634.0</ele><time>2026-05-03T17:44:26.999Z</time></trkpt><trkpt lat="46.1406743052491" lon="13.620138826604787"><ele>634.0</ele><time>2026-05-03T17:44:32.999Z</time></trkpt><trkpt lat="46.14073775512937" lon="13.620102546546388"><ele>634.0</ele><time>2026-05-03T17:44:37.999Z</time></trkpt><trkpt lat="46.14078997029681" lon="13.620049344806533"><ele>634.0</ele><time>2026-05-03T17:44:42.999Z</time></trkpt><trkpt lat="46.140842079245324" lon="13.619996647538537"><ele>634.0</ele><time>2026-05-03T17:44:48.999Z</time></trkpt><trkpt lat="46.14090673777092" lon="13.619955647977235"><ele>634.0</ele><time>2026-05-03T17:44:53.999Z</time></trkpt><trkpt lat="46.140965631377966" lon="13.619912878083454"><ele>634.0</ele><time>2026-05-03T17:44:57.999Z</time></trkpt><trkpt lat="46.14102606344257" lon="13.619837706970495"><ele>634.0</ele><time>2026-05-03T17:45:03.998Z</time></trkpt><trkpt lat="46.141084413750576" lon="13.61978382323869"><ele>634.0</ele><time>2026-05-03T17:45:09.998Z</time></trkpt><trkpt lat="46.14114658307087" lon="13.6197488322786"><ele>634.0</ele><time>2026-05-03T17:45:14.998Z</time></trkpt><trkpt lat="46.14120941263462" lon="13.61978810570503"><ele>634.0</ele><time>2026-05-03T17:45:23.998Z</time></trkpt><trkpt lat="46.14124961674847" lon="13.619883928561764"><ele>634.0</ele><time>2026-05-03T17:45:27.998Z</time></trkpt><trkpt lat="46.1412882072131" lon="13.619973327592886"><ele>634.0</ele><time>2026-05-03T17:45:33.998Z</time></trkpt><trkpt lat="46.14132615259311" lon="13.620064889064183"><ele>634.0</ele><time>2026-05-03T17:45:41Z</time></trkpt><trkpt lat="46.141365359707535" lon="13.62015084017972"><ele>634.0</ele><time>2026-05-03T17:45:48Z</time></trkpt><trkpt lat="46.14140565819433" lon="13.620237200769422"><ele>634.0</ele><time>2026-05-03T17:45:54Z</time></trkpt><trkpt lat="46.141414835069824" lon="13.620341444764103"><ele>634.0</ele><time>2026-05-03T17:46:02Z</time></trkpt><trkpt lat="46.14140746124979" lon="13.620441858105522"><ele>634.0</ele><time>2026-05-03T17:46:06Z</time></trkpt><trkpt lat="46.14143380373623" lon="13.620538102234052"><ele>634.0</ele><time>2026-05-03T17:46:11Z</time></trkpt><trkpt lat="46.14149245489183" lon="13.620603187177414"><ele>632.0</ele><time>2026-05-03T17:46:17Z</time></trkpt><trkpt lat="46.14155227064707" lon="13.62064864351076"><ele>630.0</ele><time>2026-05-03T17:46:21.999Z</time></trkpt><trkpt lat="46.14160928894804" lon="13.620704201777253"><ele>628.0</ele><time>2026-05-03T17:46:26.999Z</time></trkpt><trkpt lat="46.1416716403506" lon="13.620745012163626"><ele>626.0</ele><time>2026-05-03T17:46:32.999Z</time></trkpt><trkpt lat="46.141736528948414" lon="13.620791003178413"><ele>624.0</ele><time>2026-05-03T17:46:39.999Z</time></trkpt><trkpt lat="46.141802588093654" lon="13.620831955547713"><ele>622.0</ele><time>2026-05-03T17:46:45.999Z</time></trkpt><trkpt lat="46.141868097160966" lon="13.62087264874629"><ele>620.0</ele><time>2026-05-03T17:46:51.999Z</time></trkpt><trkpt lat="46.14193222631602" lon="13.620905568455978"><ele>620.0</ele><time>2026-05-03T17:46:57.999Z</time></trkpt><trkpt lat="46.14198883887608" lon="13.620951677277873"><ele>620.0</ele><time>2026-05-03T17:47:02.999Z</time></trkpt><trkpt lat="46.142043000254986" lon="13.621007582149904"><ele>620.0</ele><time>2026-05-03T17:47:08.998Z</time></trkpt><trkpt lat="46.14210171203825" lon="13.621078859347762"><ele>620.0</ele><time>2026-05-03T17:47:14.998Z</time></trkpt><trkpt lat="46.142160422035786" lon="13.621144573215185"><ele>620.0</ele><time>2026-05-03T17:47:20.998Z</time></trkpt><trkpt lat="46.14221613184906" lon="13.621196249573186"><ele>620.0</ele><time>2026-05-03T17:47:30.998Z</time></trkpt><trkpt lat="46.14227913878999" lon="13.621252921723565"><ele>620.0</ele><time>2026-05-03T17:47:47Z</time></trkpt><trkpt lat="46.14234307652895" lon="13.621309853429691"><ele>618.2857142857143</ele><time>2026-05-03T17:47:54Z</time></trkpt><trkpt lat="46.14241029351859" lon="13.621346696441549"><ele>616.5714285714286</ele><time>2026-05-03T17:48:00Z</time></trkpt><trkpt lat="46.142472103369975" lon="13.62139134818049"><ele>614.8571428571429</ele><time>2026-05-03T17:48:06Z</time></trkpt><trkpt lat="46.142540923585294" lon="13.621432965425239"><ele>613.1428571428571</ele><time>2026-05-03T17:48:12Z</time></trkpt><trkpt lat="46.14260343495628" lon="13.621465418758298"><ele>611.4285714285714</ele><time>2026-05-03T17:48:18Z</time></trkpt><trkpt lat="46.14267900810615" lon="13.621506780617162"><ele>609.7142857142857</ele><time>2026-05-03T17:48:24.999Z</time></trkpt><trkpt lat="46.142739379241235" lon="13.621554582257943"><ele>608.0</ele><time>2026-05-03T17:48:30.999Z</time></trkpt><trkpt lat="46.14280219664427" lon="13.62158736723418"><ele>608.0</ele><time>2026-05-03T17:48:39.999Z</time></trkpt><trkpt lat="46.14287889089309" lon="13.621567386329582"><ele>608.0</ele><time>2026-05-03T17:48:44.999Z</time></trkpt><trkpt lat="46.14294360486277" lon="13.621590248802983"><ele>608.0</ele><time>2026-05-03T17:48:49.999Z</time></trkpt><trkpt lat="46.142996260340915" lon="13.62164519315949"><ele>608.0</ele><time>2026-05-03T17:48:54.999Z</time></trkpt><trkpt lat="46.14305142337913" lon="13.621707265478268"><ele>608.0</ele><time>2026-05-03T17:48:59.999Z</time></trkpt><trkpt lat="46.14311186735962" lon="13.621774436309071"><ele>608.0</ele><time>2026-05-03T17:49:05.998Z</time></trkpt><trkpt lat="46.14316339500522" lon="13.621836205186094"><ele>608.0</ele><time>2026-05-03T17:49:09.998Z</time></trkpt><trkpt lat="46.1432180034351" lon="13.621905145317694"><ele>606.7142857142857</ele><time>2026-05-03T17:49:14.998Z</time></trkpt><trkpt lat="46.143267385254056" lon="13.621967929447697"><ele>605.4285714285714</ele><time>2026-05-03T17:49:19.998Z</time></trkpt><trkpt lat="46.14331463355764" lon="13.622055192184526"><ele>604.1428571428571</ele><time>2026-05-03T17:49:24.998Z</time></trkpt><trkpt lat="46.143332479533754" lon="13.622155664469474"><ele>602.8571428571429</ele><time>2026-05-03T17:49:29.998Z</time></trkpt><trkpt lat="46.143319513145876" lon="13.622251319340602"><ele>601.5714285714286</ele><time>2026-05-03T17:49:34.998Z</time></trkpt><trkpt lat="46.14331349991582" lon="13.622350949575466"><ele>600.2857142857143</ele><time>2026-05-03T17:49:39.998Z</time></trkpt><trkpt lat="46.143319795601535" lon="13.622465660453141"><ele>599.0</ele><time>2026-05-03T17:49:45.998Z</time></trkpt><trkpt lat="46.14331943977649" lon="13.62257828661343"><ele>599.0</ele><time>2026-05-03T17:49:52Z</time></trkpt><trkpt lat="46.14331231648686" lon="13.622675881956953"><ele>599.0</ele><time>2026-05-03T17:49:57Z</time></trkpt><trkpt lat="46.143316821017166" lon="13.622779647443206"><ele>599.0</ele><time>2026-05-03T17:50:03Z</time></trkpt><trkpt lat="46.14326216643948" lon="13.62285943293911"><ele>595.0</ele><time>2026-05-03T17:51:04.999Z</time></trkpt></trkseg></trk></gpx>